createdAt,value
2023-04-09T00:00:35.642Z,34.22
2023-04-09T00:03:13.023Z,31.98
2023-04-09T00:05:43.120Z,31.95
2023-04-09T00:08:11.163Z,30.55
2023-04-09T00:10:40.837Z,28.30
2023-04-09T00:13:11.462Z,32.35
2023-04-09T00:15:39.544Z,34.17
2023-04-09T00:18:10.138Z,37.53
2023-04-09T00:20:39.538Z,38.53
2023-04-09T00:23:18.501Z,39.17
2023-04-09T00:25:46.650Z,38.78
2023-04-09T00:30:58.800Z,36.83
2023-04-09T00:33:29.631Z,37.90
2023-04-09T00:36:08.021Z,38.05
2023-04-09T00:38:35.977Z,36.35
2023-04-09T00:41:05.983Z,35.95
2023-04-09T00:43:34.787Z,37.10
2023-04-09T00:46:02.338Z,37.05
2023-04-09T00:48:30.785Z,35.88
2023-04-09T00:50:59.986Z,36.70
2023-04-09T00:53:36.318Z,36.50
2023-04-09T00:56:11.104Z,36.35
2023-04-09T00:58:39.715Z,36.17
2023-04-09T01:01:10.244Z,36.50
2023-04-09T01:03:39.148Z,36.15
2023-04-09T01:06:28.550Z,35.85
2023-04-09T01:12:01.309Z,35.95
2023-04-09T01:14:46.693Z,36.97
2023-04-09T01:17:42.101Z,36.03
2023-04-09T01:20:30.803Z,33.60
2023-04-09T01:23:19.365Z,36.47
2023-04-09T01:26:11.982Z,35.42
2023-04-09T01:28:52.707Z,35.50
2023-04-09T01:31:21.862Z,37.13
2023-04-09T01:33:49.242Z,35.55
2023-04-09T01:36:17.430Z,35.95
2023-04-09T01:38:46.643Z,37.15
2023-04-09T01:41:19.913Z,36.25
2023-04-09T01:43:57.628Z,37.15
2023-04-09T01:46:30.667Z,35.97
2023-04-09T01:49:01.039Z,36.80
2023-04-09T01:51:32.385Z,36.50
2023-04-09T01:54:01.443Z,39.35
2023-04-09T01:56:28.719Z,36.40
2023-04-09T01:58:56.087Z,36.17
2023-04-09T02:01:47.247Z,37.97
2023-04-09T02:04:31.312Z,36.50
2023-04-09T02:07:06.846Z,36.53
2023-04-09T02:09:36.661Z,36.35
2023-04-09T02:12:06.098Z,36.70
2023-04-09T02:14:33.986Z,33.38
2023-04-09T02:17:02.055Z,34.25
2023-04-09T02:19:56.478Z,34.55
2023-04-09T02:22:23.757Z,35.42
2023-04-09T02:24:51.215Z,34.53
2023-04-09T02:27:20.459Z,34.88
2023-04-09T02:29:49.515Z,36.20
2023-04-09T02:32:23.568Z,36.80
2023-04-09T02:34:52.598Z,36.30
2023-04-09T02:37:32.056Z,35.40
2023-04-09T02:40:06.806Z,35.30
2023-04-09T02:42:34.681Z,34.83
2023-04-09T02:45:02.608Z,35.30
2023-04-09T02:47:38.540Z,33.80
2023-04-09T02:50:07.906Z,33.85
2023-04-09T02:52:35.205Z,33.75
2023-04-09T02:55:02.613Z,33.72
2023-04-09T02:57:30.574Z,33.80
2023-04-09T02:59:57.883Z,33.38
2023-04-09T03:02:25.302Z,34.63
2023-04-09T03:04:53.294Z,34.17
2023-04-09T03:07:20.543Z,33.90
2023-04-09T03:09:47.811Z,33.65
2023-04-09T03:12:15.840Z,35.03
2023-04-09T03:14:43.114Z,34.03
2023-04-09T03:17:10.484Z,34.60
2023-04-09T03:19:37.791Z,33.95
2023-04-09T03:22:05.068Z,35.25
2023-04-09T03:24:33.582Z,35.28
2023-04-09T03:27:00.915Z,35.35
2023-04-09T03:29:28.234Z,35.22
2023-04-09T03:31:55.746Z,35.53
2023-04-09T03:34:24.521Z,35.35
2023-04-09T03:36:51.849Z,35.45
2023-04-09T03:39:19.347Z,36.50
2023-04-09T03:41:49.505Z,35.65
2023-04-09T03:44:16.862Z,35.17
2023-04-09T03:46:44.172Z,34.15
2023-04-09T03:49:11.566Z,35.83
2023-04-09T03:51:38.816Z,36.38
2023-04-09T03:54:06.157Z,35.58
2023-04-09T03:56:33.409Z,37.22
2023-04-09T03:59:00.993Z,37.17
2023-04-09T04:01:28.840Z,38.20
2023-04-09T04:03:57.175Z,38.97
2023-04-09T04:06:26.150Z,37.97
2023-04-09T04:08:54.130Z,39.33
2023-04-09T04:11:21.706Z,36.20
2023-04-09T04:13:49.141Z,36.38
2023-04-09T04:16:16.576Z,37.42
2023-04-09T04:18:43.960Z,37.20
2023-04-09T04:21:15.513Z,35.63
2023-04-09T04:23:42.986Z,35.60
2023-04-09T04:26:10.964Z,37.00
2023-04-09T04:28:39.216Z,37.38
2023-04-09T04:31:13.178Z,35.85
2023-04-09T04:33:42.034Z,36.30
2023-04-09T04:36:10.957Z,34.97
2023-04-09T04:38:38.646Z,36.67
2023-04-09T04:41:06.515Z,34.85
2023-04-09T04:43:34.065Z,35.42
2023-04-09T04:46:01.607Z,35.03
2023-04-09T04:48:29.756Z,36.50
2023-04-09T04:51:01.878Z,35.97
2023-04-09T04:53:29.432Z,35.35
2023-04-09T04:55:56.817Z,34.92
2023-04-09T04:58:24.989Z,36.85
2023-04-09T05:00:52.398Z,36.65
2023-04-09T05:03:19.841Z,34.97
2023-04-09T05:05:50.267Z,36.25
2023-04-09T05:08:17.610Z,36.38
2023-04-09T05:10:46.899Z,36.65
2023-04-09T05:13:14.272Z,38.00
2023-04-09T05:15:42.419Z,37.03
2023-04-09T05:18:09.892Z,36.53
2023-04-09T05:20:39.382Z,36.95
2023-04-09T05:23:06.748Z,37.97
2023-04-09T05:25:34.137Z,35.95
2023-04-09T05:28:01.530Z,37.05
2023-04-09T05:30:28.920Z,36.53
2023-04-09T05:32:56.312Z,36.45
2023-04-09T05:35:23.787Z,36.08
2023-04-09T05:37:51.166Z,37.33
2023-04-09T05:40:18.540Z,35.90
2023-04-09T05:42:49.370Z,36.65
2023-04-09T05:45:16.760Z,37.22
2023-04-09T05:47:44.139Z,34.88
2023-04-09T05:50:11.846Z,37.15
2023-04-09T05:52:39.483Z,38.80
2023-04-09T05:55:10.654Z,38.13
2023-04-09T05:57:38.116Z,37.20
2023-04-09T06:00:17.072Z,36.55
2023-04-09T06:02:45.610Z,37.42
2023-04-09T06:05:20.720Z,37.67
2023-04-09T06:07:48.336Z,36.25
2023-04-09T06:10:15.867Z,39.60
2023-04-09T06:12:43.320Z,38.58
2023-04-09T06:15:11.306Z,38.72
2023-04-09T06:17:46.649Z,38.05
2023-04-09T06:20:14.239Z,39.47
2023-04-09T06:22:44.380Z,38.75
2023-04-09T06:25:12.219Z,40.05
2023-04-09T06:27:42.240Z,39.35
2023-04-09T06:30:10.605Z,39.83
2023-04-09T06:32:51.056Z,40.15
2023-04-09T06:35:21.447Z,40.20
2023-04-09T06:37:48.991Z,40.50
2023-04-09T06:40:16.553Z,39.38
2023-04-09T06:42:43.990Z,42.20
2023-04-09T06:45:11.791Z,40.80
2023-04-09T06:47:39.236Z,42.28
2023-04-09T06:50:07.135Z,45.55
2023-04-09T06:52:34.495Z,43.92
2023-04-09T06:55:01.858Z,44.72
2023-04-09T06:57:29.293Z,44.42
2023-04-09T06:59:56.607Z,46.22
2023-04-09T07:02:24.229Z,46.85
2023-04-09T07:05:13.068Z,46.45
2023-04-09T07:07:42.841Z,49.58
2023-04-09T07:10:21.813Z,49.90
2023-04-09T07:12:51.572Z,48.80
2023-04-09T07:15:18.876Z,50.67
2023-04-09T07:17:46.842Z,48.35
2023-04-09T07:20:18.593Z,49.75
2023-04-09T07:22:48.734Z,49.22
2023-04-09T07:25:18.875Z,50.10
2023-04-09T07:27:46.324Z,51.40
2023-04-09T07:30:18.042Z,52.35
2023-04-09T07:32:45.818Z,51.05
2023-04-09T07:35:13.159Z,51.65
2023-04-09T07:37:40.654Z,52.70
2023-04-09T07:40:08.607Z,52.28
2023-04-09T07:42:40.980Z,52.58
2023-04-09T07:45:08.951Z,49.63
2023-04-09T07:47:36.436Z,52.70
2023-04-09T07:50:04.026Z,53.22
2023-04-09T07:52:31.341Z,56.38
2023-04-09T07:54:58.873Z,54.92
2023-04-09T07:57:28.796Z,55.45
2023-04-09T07:59:59.135Z,55.70
2023-04-09T08:02:29.409Z,56.50
2023-04-09T08:05:08.178Z,56.03
2023-04-09T08:07:38.665Z,59.45
2023-04-09T08:10:07.287Z,57.88
2023-04-09T08:12:43.859Z,60.30
2023-04-09T08:15:12.868Z,56.92
2023-04-09T08:17:48.091Z,57.53
2023-04-09T08:20:17.132Z,58.90
2023-04-09T08:22:45.480Z,58.55
2023-04-09T08:25:14.069Z,60.83
2023-04-09T08:27:43.703Z,57.22
2023-04-09T08:30:11.824Z,58.38
2023-04-09T08:32:40.626Z,56.45
2023-04-09T08:35:11.028Z,56.88
2023-04-09T08:37:42.643Z,55.47
2023-04-09T08:40:12.005Z,56.87
2023-04-09T08:42:48.031Z,61.20
2023-04-09T08:45:19.906Z,60.92
2023-04-09T08:47:50.744Z,62.30
2023-04-09T08:50:20.597Z,60.08
2023-04-09T08:53:19.260Z,60.97
2023-04-09T08:55:56.273Z,59.67
2023-04-09T08:58:27.116Z,58.83
2023-04-09T09:00:54.681Z,53.53
2023-04-09T09:03:22.220Z,47.95
2023-04-09T09:05:50.457Z,46.03
2023-04-09T09:08:43.705Z,45.63
2023-04-09T09:13:41.044Z,42.13
2023-04-09T09:16:18.828Z,41.80
2023-04-09T09:18:50.193Z,43.22
2023-04-09T09:27:13.240Z,42.17
2023-04-09T09:29:50.680Z,42.95
2023-04-09T09:32:24.593Z,43.55
2023-04-09T09:35:06.306Z,43.70
2023-04-09T09:37:36.462Z,42.38
2023-04-09T09:40:04.623Z,42.55
2023-04-09T09:42:33.048Z,42.38
2023-04-09T09:45:02.224Z,42.75
2023-04-09T09:47:30.483Z,41.80
2023-04-09T09:49:58.481Z,42.92
2023-04-09T09:52:31.660Z,43.22
2023-04-09T09:55:00.187Z,42.28
2023-04-09T09:57:30.704Z,43.28
2023-04-09T10:00:04.253Z,40.55
2023-04-09T10:02:49.563Z,41.97
2023-04-09T10:05:17.508Z,42.00
2023-04-09T10:07:47.829Z,42.30
2023-04-09T10:10:16.000Z,42.70
2023-04-09T10:12:47.228Z,42.55
2023-04-09T10:15:23.714Z,42.25
2023-04-09T10:17:56.105Z,42.42
2023-04-09T10:20:50.064Z,42.58
2023-04-09T10:23:57.035Z,41.70
2023-04-09T10:26:30.241Z,41.80
2023-04-09T10:29:29.326Z,40.97
2023-04-09T10:32:23.084Z,40.80
2023-04-09T10:34:53.112Z,40.30
2023-04-09T10:37:32.119Z,42.05
2023-04-09T10:40:02.836Z,41.28
2023-04-09T10:42:33.586Z,39.53
2023-04-09T10:45:18.821Z,37.40
2023-04-09T10:47:51.846Z,37.03
2023-04-09T10:50:39.161Z,37.53
2023-04-09T10:53:18.579Z,37.85
2023-04-09T10:55:52.737Z,37.90
2023-04-09T10:58:29.686Z,35.83
2023-04-09T11:01:13.351Z,36.58
2023-04-09T11:03:51.575Z,36.65
2023-04-09T11:06:23.003Z,36.25
2023-04-09T11:08:59.426Z,35.30
2023-04-09T11:11:28.248Z,36.58
2023-04-09T11:14:01.797Z,35.53
2023-04-09T11:16:35.791Z,36.40
2023-04-09T11:19:06.071Z,35.63
2023-04-09T11:21:44.289Z,36.05
2023-04-09T11:24:17.766Z,33.88
2023-04-09T11:26:49.925Z,35.65
2023-04-09T11:29:25.275Z,32.92
2023-04-09T11:31:52.880Z,34.28
2023-04-09T11:34:33.498Z,32.67
2023-04-09T11:37:05.527Z,32.90
2023-04-09T11:39:42.655Z,32.57
2023-04-09T11:42:19.708Z,32.28
2023-04-09T11:44:47.166Z,30.55
2023-04-09T11:47:16.186Z,30.33
2023-04-09T11:49:47.536Z,29.10
2023-04-09T11:52:36.617Z,27.92
2023-04-09T11:55:07.645Z,29.55
2023-04-09T11:58:04.308Z,30.00
2023-04-09T12:00:41.614Z,29.70
2023-04-09T12:03:17.661Z,31.13
2023-04-09T12:05:54.882Z,29.13
2023-04-09T12:08:25.499Z,27.52
2023-04-09T12:10:53.801Z,26.13
2023-04-09T12:13:31.809Z,25.90
2023-04-09T12:16:03.178Z,26.27
2023-04-09T12:18:30.843Z,27.85
2023-04-09T12:20:58.239Z,27.23
2023-04-09T12:23:25.852Z,24.48
2023-04-09T12:25:55.187Z,25.08
2023-04-09T12:28:22.548Z,25.23
2023-04-09T12:30:53.977Z,25.38
2023-04-09T12:33:21.908Z,26.20
2023-04-09T12:35:49.389Z,25.40
2023-04-09T12:38:19.970Z,24.77
2023-04-09T12:40:58.913Z,23.75
2023-04-09T12:43:28.897Z,23.25
2023-04-09T12:46:00.794Z,22.90
2023-04-09T12:48:28.509Z,22.38
2023-04-09T12:50:58.935Z,21.17
2023-04-09T12:53:26.298Z,21.00
2023-04-09T12:55:54.745Z,22.60
2023-04-09T12:58:23.489Z,21.45
2023-04-09T13:01:02.557Z,22.98
2023-04-09T13:03:31.181Z,22.05
2023-04-09T13:06:00.175Z,20.80
2023-04-09T13:08:30.609Z,22.98
2023-04-09T13:11:08.531Z,22.00
2023-04-09T13:13:36.053Z,21.17
2023-04-09T13:16:13.561Z,20.70
2023-04-09T13:18:49.600Z,21.10
2023-04-09T13:21:21.008Z,19.58
2023-04-09T13:23:53.476Z,19.52
2023-04-09T13:26:22.805Z,18.73
2023-04-09T13:28:53.772Z,20.27
2023-04-09T13:31:26.752Z,18.08
2023-04-09T13:33:59.017Z,17.23
2023-04-09T13:36:29.946Z,16.67
2023-04-09T13:39:07.015Z,16.02
2023-04-09T13:41:43.466Z,18.05
2023-04-09T13:46:54.540Z,17.48
2023-04-09T13:49:35.531Z,17.90
2023-04-09T13:52:18.645Z,17.85
2023-04-09T13:55:13.873Z,15.75
2023-04-09T13:57:55.485Z,16.30
2023-04-09T14:00:29.913Z,16.90
2023-04-09T14:03:13.512Z,16.40
2023-04-09T14:05:44.988Z,17.37
2023-04-09T14:08:19.776Z,16.42
2023-04-09T14:13:44.959Z,15.65
2023-04-09T14:16:23.605Z,15.63
2023-04-09T14:18:53.601Z,15.32
2023-04-09T14:21:30.821Z,14.55
2023-04-09T14:24:05.979Z,13.90
2023-04-09T14:26:37.882Z,15.93
2023-04-09T14:29:13.998Z,15.80
2023-04-09T14:31:50.365Z,14.57
2023-04-09T14:34:21.673Z,14.45
2023-04-09T14:37:04.289Z,14.77
2023-04-09T14:39:35.738Z,13.98
2023-04-09T14:42:03.240Z,11.98
2023-04-09T14:44:40.882Z,13.50
2023-04-09T14:47:17.570Z,13.40
2023-04-09T14:52:59.092Z,12.63
2023-04-09T14:55:37.709Z,13.45
2023-04-09T14:58:10.079Z,13.88
2023-04-09T15:03:29.104Z,13.32
2023-04-09T15:06:00.205Z,13.73
2023-04-09T15:08:31.053Z,13.18
2023-04-09T15:10:58.508Z,12.98
2023-04-09T15:13:27.014Z,12.57
2023-04-09T15:15:56.663Z,12.88
2023-04-09T15:18:27.747Z,13.18
2023-04-09T15:20:55.490Z,13.25
2023-04-09T15:23:24.058Z,14.07
2023-04-09T15:25:54.094Z,13.45
2023-04-09T15:28:25.074Z,13.32
2023-04-09T15:31:07.361Z,12.32
2023-04-09T15:34:07.717Z,13.10
2023-04-09T15:36:35.642Z,11.63
2023-04-09T15:39:05.012Z,12.13
2023-04-09T15:41:33.798Z,12.35
2023-04-09T15:50:14.227Z,12.48
2023-04-09T15:52:50.806Z,12.13
2023-04-09T15:55:53.234Z,11.70
2023-04-09T15:58:25.011Z,12.23
2023-04-09T16:01:00.776Z,11.88
2023-04-09T16:06:35.937Z,12.13
2023-04-09T16:09:03.468Z,12.65
2023-04-09T16:11:30.833Z,12.50
2023-04-09T16:14:00.542Z,13.65
2023-04-09T16:16:29.725Z,13.25
2023-04-09T16:18:59.176Z,13.85
2023-04-09T16:24:16.174Z,12.65
2023-04-09T16:26:47.218Z,13.48
2023-04-09T16:32:28.875Z,13.25
2023-04-09T16:37:46.736Z,11.70
2023-04-09T16:40:24.618Z,12.13
2023-04-09T16:46:16.541Z,12.98
2023-04-09T16:48:46.662Z,11.88
2023-04-09T16:51:22.203Z,13.00
2023-04-09T16:53:49.645Z,12.52
2023-04-09T16:56:17.137Z,11.50
2023-04-09T16:58:48.579Z,11.63
2023-04-09T17:01:16.231Z,10.82
2023-04-09T17:03:44.395Z,11.05
2023-04-09T17:06:13.856Z,10.07
2023-04-09T17:08:42.302Z,10.57
2023-04-09T17:11:10.303Z,11.02
2023-04-09T17:13:40.411Z,12.02
2023-04-09T17:16:14.801Z,12.15
2023-04-09T17:18:45.480Z,13.02
2023-04-09T17:23:58.485Z,13.48
2023-04-09T17:26:28.563Z,14.20
2023-04-09T17:28:58.329Z,13.60
2023-04-09T17:31:32.094Z,12.70
2023-04-09T17:34:08.617Z,12.40
2023-04-09T17:36:42.097Z,12.82
2023-04-09T17:39:16.215Z,13.40
2023-04-09T17:42:05.554Z,12.65
2023-04-09T17:47:40.521Z,13.48
2023-04-09T17:50:45.548Z,12.07
2023-04-09T17:53:14.578Z,12.55
2023-04-09T17:58:36.382Z,12.55
2023-04-09T18:01:08.420Z,12.30
2023-04-09T18:03:36.936Z,12.35
2023-04-09T18:08:51.561Z,11.88
2023-04-09T18:11:19.273Z,11.68
2023-04-09T18:13:46.685Z,12.45
2023-04-09T18:16:14.310Z,12.70
2023-04-09T18:18:42.312Z,12.43
2023-04-09T18:21:12.597Z,11.98
2023-04-09T18:26:48.113Z,11.68
2023-04-09T18:32:36.819Z,11.60
2023-04-09T18:35:17.722Z,11.55
2023-04-09T18:37:45.799Z,11.70
2023-04-09T18:40:17.840Z,11.63
2023-04-09T18:42:45.254Z,11.60
2023-04-09T18:45:12.689Z,11.15
2023-04-09T18:47:40.798Z,11.70
2023-04-09T18:50:09.088Z,11.20
2023-04-09T18:52:38.937Z,11.02
2023-04-09T18:55:06.744Z,10.93
2023-04-09T18:57:47.392Z,11.18
2023-04-09T19:00:21.932Z,11.35
2023-04-09T19:02:54.281Z,10.57
2023-04-09T19:05:22.084Z,10.73
2023-04-09T19:07:50.073Z,10.65
2023-04-09T19:10:18.320Z,11.50
2023-04-09T19:12:54.126Z,11.63
2023-04-09T19:15:32.841Z,10.98
2023-04-09T19:18:23.829Z,11.30
2023-04-09T19:20:51.376Z,10.65
2023-04-09T19:23:21.375Z,11.65
2023-04-09T19:28:48.560Z,10.73
2023-04-09T19:31:25.004Z,11.73
2023-04-09T19:37:12.425Z,11.25
2023-04-09T19:42:43.619Z,10.90
2023-04-09T19:45:20.284Z,10.57
2023-04-09T19:50:52.527Z,10.93
2023-04-09T19:56:41.638Z,10.85
2023-04-09T19:59:49.779Z,10.70
2023-04-09T20:02:45.937Z,10.52
2023-04-09T20:08:12.809Z,10.35
2023-04-09T20:10:47.337Z,10.73
2023-04-09T20:13:15.348Z,10.75
2023-04-09T20:15:42.925Z,10.75
2023-04-09T20:18:10.341Z,10.57
2023-04-09T20:20:37.797Z,10.65
2023-04-09T20:23:05.626Z,11.27
2023-04-09T20:25:40.436Z,10.73
2023-04-09T20:28:11.052Z,10.45
2023-04-09T20:30:47.889Z,10.65
2023-04-09T20:33:27.592Z,10.35
2023-04-09T20:36:11.556Z,11.07
2023-04-09T20:41:29.800Z,11.00
2023-04-09T20:44:08.811Z,10.80
2023-04-09T20:46:46.614Z,10.43
2023-04-09T20:49:31.948Z,11.00
2023-04-09T20:52:02.059Z,11.05
2023-04-09T20:54:36.832Z,12.20
2023-04-09T20:57:20.067Z,11.55
2023-04-09T21:00:19.197Z,11.82
2023-04-09T21:02:57.135Z,11.60
2023-04-09T21:05:48.795Z,12.13
2023-04-09T21:08:32.615Z,10.65
2023-04-09T21:11:09.535Z,11.40
2023-04-09T21:13:53.026Z,11.20
2023-04-09T21:16:23.093Z,11.68
2023-04-09T21:18:51.857Z,11.30
2023-04-09T21:24:16.624Z,11.65
2023-04-09T21:26:51.773Z,11.60
2023-04-09T21:29:21.331Z,11.88
2023-04-09T21:31:49.914Z,11.25
2023-04-09T21:34:20.547Z,12.10
2023-04-09T21:36:50.050Z,12.30
2023-04-09T21:45:23.381Z,12.30
2023-04-09T21:48:08.996Z,12.57
2023-04-09T21:53:36.133Z,12.15
2023-04-09T21:56:29.171Z,12.55
2023-04-09T21:58:57.701Z,12.77
2023-04-09T22:01:29.919Z,13.25
2023-04-09T22:04:02.849Z,12.77
2023-04-09T22:10:01.956Z,12.15
2023-04-09T22:12:37.261Z,12.63
2023-04-09T22:15:07.629Z,12.57
2023-04-09T22:17:35.727Z,12.77
2023-04-09T22:20:10.864Z,13.50
2023-04-09T22:25:52.569Z,12.13
2023-04-09T22:28:20.245Z,13.05
2023-04-09T22:37:02.358Z,13.32
2023-04-09T22:39:32.505Z,13.10
2023-04-09T22:42:23.565Z,12.43
2023-04-09T22:45:34.091Z,13.80
2023-04-09T22:48:47.773Z,13.93
2023-04-09T22:54:15.786Z,13.50
2023-04-09T22:56:57.929Z,14.40
2023-04-09T22:59:39.071Z,13.90
2023-04-09T23:02:12.313Z,13.68
2023-04-09T23:04:39.699Z,12.77
2023-04-09T23:07:09.676Z,13.13
2023-04-09T23:09:37.349Z,13.73
2023-04-09T23:12:07.092Z,13.43
2023-04-09T23:14:39.137Z,13.40
2023-04-09T23:17:17.227Z,12.82
2023-04-09T23:20:10.347Z,13.45
2023-04-09T23:22:53.002Z,13.63
2023-04-09T23:28:17.139Z,12.40
2023-04-09T23:30:50.649Z,12.80
2023-04-09T23:33:35.410Z,12.75
2023-04-09T23:36:06.245Z,12.65
2023-04-09T23:38:49.583Z,12.65
2023-04-09T23:44:08.210Z,12.68
2023-04-09T23:46:38.939Z,13.90
2023-04-09T23:49:45.041Z,13.45
2023-04-09T23:52:16.526Z,12.57
2023-04-09T23:54:54.298Z,12.68
2023-04-09T23:57:31.705Z,13.45
